sensor_id;sensor_type;location;lat;lon;timestamp;P1;durP1;ratioP1;P2;durP2;ratioP2
18532;SDS011;9396;51.510;11.934;2023-08-01T00:00:43;6.37;;;3.40;;
18532;SDS011;9396;51.510;11.934;2023-08-01T00:03:10;4.23;;;2.87;;
18532;SDS011;9396;51.510;11.934;2023-08-01T00:05:38;7.30;;;3.40;;
18532;SDS011;9396;51.510;11.934;2023-08-01T00:08:09;6.13;;;3.23;;
18532;SDS011;9396;51.510;11.934;2023-08-01T00:10:37;7.37;;;3.67;;
18532;SDS011;9396;51.510;11.934;2023-08-01T00:13:05;5.43;;;2.83;;
18532;SDS011;9396;51.510;11.934;2023-08-01T00:15:31;5.13;;;2.93;;
18532;SDS011;9396;51.510;11.934;2023-08-01T00:17:58;5.40;;;3.23;;
18532;SDS011;9396;51.510;11.934;2023-08-01T00:20:25;4.20;;;3.03;;
18532;SDS011;9396;51.510;11.934;2023-08-01T00:22:51;6.33;;;2.70;;
18532;SDS011;9396;51.510;11.934;2023-08-01T00:25:18;5.83;;;3.03;;
18532;SDS011;9396;51.510;11.934;2023-08-01T00:27:46;5.93;;;3.17;;
18532;SDS011;9396;51.510;11.934;2023-08-01T00:30:14;8.60;;;3.17;;
18532;SDS011;9396;51.510;11.934;2023-08-01T00:32:41;6.27;;;2.93;;
18532;SDS011;9396;51.510;11.934;2023-08-01T00:35:08;6.03;;;2.63;;
18532;SDS011;9396;51.510;11.934;2023-08-01T00:37:35;3.70;;;2.77;;
18532;SDS011;9396;51.510;11.934;2023-08-01T00:40:02;6.53;;;3.20;;
18532;SDS011;9396;51.510;11.934;2023-08-01T00:42:30;4.57;;;2.60;;
18532;SDS011;9396;51.510;11.934;2023-08-01T00:44:56;4.47;;;2.70;;
18532;SDS011;9396;51.510;11.934;2023-08-01T00:47:25;6.93;;;3.23;;
18532;SDS011;9396;51.510;11.934;2023-08-01T00:49:52;5.03;;;2.73;;
18532;SDS011;9396;51.510;11.934;2023-08-01T00:52:19;4.43;;;3.00;;
18532;SDS011;9396;51.510;11.934;2023-08-01T00:54:46;6.13;;;2.67;;
18532;SDS011;9396;51.510;11.934;2023-08-01T00:57:12;6.13;;;3.00;;
18532;SDS011;9396;51.510;11.934;2023-08-01T00:59:39;4.27;;;2.40;;
18532;SDS011;9396;51.510;11.934;2023-08-01T01:02:06;3.97;;;2.63;;
18532;SDS011;9396;51.510;11.934;2023-08-01T01:04:34;3.40;;;2.60;;
18532;SDS011;9396;51.510;11.934;2023-08-01T01:07:02;2.93;;;2.07;;
18532;SDS011;9396;51.510;11.934;2023-08-01T01:09:30;3.47;;;2.10;;
18532;SDS011;9396;51.510;11.934;2023-08-01T01:11:57;3.50;;;2.43;;
18532;SDS011;9396;51.510;11.934;2023-08-01T01:14:25;2.87;;;2.30;;
18532;SDS011;9396;51.510;11.934;2023-08-01T01:16:52;2.70;;;2.10;;
18532;SDS011;9396;51.510;11.934;2023-08-01T01:19:18;5.83;;;2.30;;
18532;SDS011;9396;51.510;11.934;2023-08-01T01:21:47;4.27;;;2.00;;
18532;SDS011;9396;51.510;11.934;2023-08-01T01:24:14;3.43;;;2.30;;
18532;SDS011;9396;51.510;11.934;2023-08-01T01:26:42;2.60;;;1.73;;
18532;SDS011;9396;51.510;11.934;2023-08-01T01:29:09;2.77;;;2.10;;
18532;SDS011;9396;51.510;11.934;2023-08-01T01:31:38;3.23;;;1.90;;
18532;SDS011;9396;51.510;11.934;2023-08-01T01:34:05;3.60;;;2.10;;
18532;SDS011;9396;51.510;11.934;2023-08-01T01:36:32;4.97;;;1.80;;
18532;SDS011;9396;51.510;11.934;2023-08-01T01:39:00;5.03;;;2.30;;
18532;SDS011;9396;51.510;11.934;2023-08-01T01:41:27;3.10;;;1.70;;
18532;SDS011;9396;51.510;11.934;2023-08-01T01:43:54;4.50;;;1.93;;
18532;SDS011;9396;51.510;11.934;2023-08-01T01:46:20;2.67;;;1.90;;
18532;SDS011;9396;51.510;11.934;2023-08-01T01:48:46;5.43;;;1.97;;
18532;SDS011;9396;51.510;11.934;2023-08-01T01:51:13;2.37;;;2.10;;
18532;SDS011;9396;51.510;11.934;2023-08-01T01:53:39;3.23;;;1.80;;
18532;SDS011;9396;51.510;11.934;2023-08-01T01:56:07;2.53;;;1.90;;
18532;SDS011;9396;51.510;11.934;2023-08-01T01:58:34;3.87;;;1.63;;
18532;SDS011;9396;51.510;11.934;2023-08-01T02:01:01;3.27;;;1.83;;
18532;SDS011;9396;51.510;11.934;2023-08-01T02:03:27;3.10;;;1.67;;
18532;SDS011;9396;51.510;11.934;2023-08-01T02:05:54;2.80;;;1.90;;
18532;SDS011;9396;51.510;11.934;2023-08-01T02:08:21;3.93;;;2.00;;
18532;SDS011;9396;51.510;11.934;2023-08-01T02:10:47;3.10;;;1.90;;
18532;SDS011;9396;51.510;11.934;2023-08-01T02:13:15;4.73;;;2.23;;
18532;SDS011;9396;51.510;11.934;2023-08-01T02:15:42;3.10;;;2.13;;
18532;SDS011;9396;51.510;11.934;2023-08-01T02:18:09;2.67;;;2.10;;
18532;SDS011;9396;51.510;11.934;2023-08-01T02:20:36;3.03;;;2.07;;
18532;SDS011;9396;51.510;11.934;2023-08-01T02:23:03;3.30;;;2.30;;
18532;SDS011;9396;51.510;11.934;2023-08-01T02:25:29;3.00;;;2.10;;
18532;SDS011;9396;51.510;11.934;2023-08-01T02:27:56;2.57;;;1.83;;
18532;SDS011;9396;51.510;11.934;2023-08-01T02:30:24;5.67;;;2.20;;
18532;SDS011;9396;51.510;11.934;2023-08-01T02:32:51;4.13;;;2.37;;
18532;SDS011;9396;51.510;11.934;2023-08-01T02:35:17;3.80;;;2.60;;
18532;SDS011;9396;51.510;11.934;2023-08-01T02:37:44;3.37;;;2.47;;
18532;SDS011;9396;51.510;11.934;2023-08-01T02:40:11;4.03;;;2.20;;
18532;SDS011;9396;51.510;11.934;2023-08-01T02:42:38;6.13;;;2.33;;
18532;SDS011;9396;51.510;11.934;2023-08-01T02:45:05;4.40;;;2.33;;
18532;SDS011;9396;51.510;11.934;2023-08-01T02:47:33;2.97;;;2.63;;
18532;SDS011;9396;51.510;11.934;2023-08-01T02:50:00;3.87;;;2.30;;
18532;SDS011;9396;51.510;11.934;2023-08-01T02:52:27;4.87;;;2.43;;
18532;SDS011;9396;51.510;11.934;2023-08-01T02:54:54;3.17;;;2.23;;
18532;SDS011;9396;51.510;11.934;2023-08-01T02:57:20;5.20;;;2.57;;
18532;SDS011;9396;51.510;11.934;2023-08-01T02:59:47;4.13;;;2.07;;
18532;SDS011;9396;51.510;11.934;2023-08-01T03:02:13;3.90;;;2.20;;
18532;SDS011;9396;51.510;11.934;2023-08-01T03:04:41;4.13;;;2.43;;
18532;SDS011;9396;51.510;11.934;2023-08-01T03:07:08;2.93;;;2.50;;
18532;SDS011;9396;51.510;11.934;2023-08-01T03:09:35;4.43;;;2.53;;
18532;SDS011;9396;51.510;11.934;2023-08-01T03:12:01;5.63;;;2.37;;
18532;SDS011;9396;51.510;11.934;2023-08-01T03:14:28;4.57;;;2.60;;
18532;SDS011;9396;51.510;11.934;2023-08-01T03:16:55;7.70;;;2.60;;
18532;SDS011;9396;51.510;11.934;2023-08-01T03:19:22;5.10;;;2.67;;
18532;SDS011;9396;51.510;11.934;2023-08-01T03:21:53;6.20;;;2.50;;
18532;SDS011;9396;51.510;11.934;2023-08-01T03:24:19;3.03;;;2.27;;
18532;SDS011;9396;51.510;11.934;2023-08-01T03:26:46;4.47;;;2.13;;
18532;SDS011;9396;51.510;11.934;2023-08-01T03:29:13;4.23;;;2.50;;
18532;SDS011;9396;51.510;11.934;2023-08-01T03:31:40;5.17;;;2.50;;
18532;SDS011;9396;51.510;11.934;2023-08-01T03:34:06;5.67;;;2.53;;
18532;SDS011;9396;51.510;11.934;2023-08-01T03:36:34;3.40;;;2.40;;
18532;SDS011;9396;51.510;11.934;2023-08-01T03:39:02;3.47;;;2.20;;
18532;SDS011;9396;51.510;11.934;2023-08-01T03:41:29;4.23;;;2.50;;
18532;SDS011;9396;51.510;11.934;2023-08-01T03:43:57;4.53;;;2.30;;
18532;SDS011;9396;51.510;11.934;2023-08-01T03:46:24;6.67;;;2.40;;
18532;SDS011;9396;51.510;11.934;2023-08-01T03:48:50;4.40;;;2.50;;
18532;SDS011;9396;51.510;11.934;2023-08-01T03:51:17;3.13;;;2.40;;
18532;SDS011;9396;51.510;11.934;2023-08-01T03:53:44;3.37;;;2.27;;
18532;SDS011;9396;51.510;11.934;2023-08-01T03:56:12;4.30;;;2.33;;
18532;SDS011;9396;51.510;11.934;2023-08-01T03:58:39;3.40;;;2.40;;
18532;SDS011;9396;51.510;11.934;2023-08-01T04:01:06;6.70;;;2.53;;
18532;SDS011;9396;51.510;11.934;2023-08-01T04:03:32;3.80;;;2.40;;
18532;SDS011;9396;51.510;11.934;2023-08-01T04:05:59;5.50;;;2.17;;
18532;SDS011;9396;51.510;11.934;2023-08-01T04:08:26;2.90;;;2.30;;
18532;SDS011;9396;51.510;11.934;2023-08-01T04:10:52;4.13;;;2.53;;
18532;SDS011;9396;51.510;11.934;2023-08-01T04:13:20;6.23;;;2.23;;
18532;SDS011;9396;51.510;11.934;2023-08-01T04:15:47;2.90;;;2.10;;
18532;SDS011;9396;51.510;11.934;2023-08-01T04:18:14;3.40;;;2.10;;
18532;SDS011;9396;51.510;11.934;2023-08-01T04:20:40;5.13;;;2.37;;
18532;SDS011;9396;51.510;11.934;2023-08-01T04:23:07;3.77;;;2.20;;
18532;SDS011;9396;51.510;11.934;2023-08-01T04:25:34;3.67;;;2.37;;
18532;SDS011;9396;51.510;11.934;2023-08-01T04:28:00;5.37;;;2.97;;
18532;SDS011;9396;51.510;11.934;2023-08-01T04:30:28;3.13;;;2.07;;
18532;SDS011;9396;51.510;11.934;2023-08-01T04:32:55;3.10;;;1.83;;
18532;SDS011;9396;51.510;11.934;2023-08-01T04:35:22;3.90;;;2.10;;
18532;SDS011;9396;51.510;11.934;2023-08-01T04:37:48;3.93;;;2.30;;
18532;SDS011;9396;51.510;11.934;2023-08-01T04:40:15;3.20;;;2.00;;
18532;SDS011;9396;51.510;11.934;2023-08-01T04:42:42;3.10;;;2.00;;
18532;SDS011;9396;51.510;11.934;2023-08-01T04:45:09;3.70;;;1.93;;
18532;SDS011;9396;51.510;11.934;2023-08-01T04:47:37;2.90;;;1.90;;
18532;SDS011;9396;51.510;11.934;2023-08-01T04:50:04;3.20;;;2.20;;
18532;SDS011;9396;51.510;11.934;2023-08-01T04:52:32;3.77;;;1.90;;
18532;SDS011;9396;51.510;11.934;2023-08-01T04:54:58;4.87;;;2.13;;
18532;SDS011;9396;51.510;11.934;2023-08-01T04:57:25;4.97;;;1.70;;
18532;SDS011;9396;51.510;11.934;2023-08-01T04:59:52;6.67;;;1.50;;
18532;SDS011;9396;51.510;11.934;2023-08-01T05:02:18;3.07;;;1.93;;
18532;SDS011;9396;51.510;11.934;2023-08-01T05:04:47;3.70;;;1.63;;
18532;SDS011;9396;51.510;11.934;2023-08-01T05:07:13;6.00;;;1.90;;
18532;SDS011;9396;51.510;11.934;2023-08-01T05:09:40;3.60;;;1.70;;
18532;SDS011;9396;51.510;11.934;2023-08-01T05:12:07;3.17;;;1.53;;
18532;SDS011;9396;51.510;11.934;2023-08-01T05:14:34;3.00;;;1.47;;
18532;SDS011;9396;51.510;11.934;2023-08-01T05:17:01;5.73;;;1.50;;
18532;SDS011;9396;51.510;11.934;2023-08-01T05:19:28;2.17;;;1.40;;
18532;SDS011;9396;51.510;11.934;2023-08-01T05:21:57;2.77;;;1.60;;
18532;SDS011;9396;51.510;11.934;2023-08-01T05:24:23;2.40;;;1.33;;
18532;SDS011;9396;51.510;11.934;2023-08-01T05:26:50;2.20;;;1.47;;
18532;SDS011;9396;51.510;11.934;2023-08-01T05:29:17;3.03;;;1.30;;
18532;SDS011;9396;51.510;11.934;2023-08-01T05:31:44;3.13;;;1.30;;
18532;SDS011;9396;51.510;11.934;2023-08-01T05:34:10;1.30;;;1.20;;
18532;SDS011;9396;51.510;11.934;2023-08-01T05:36:37;2.50;;;1.30;;
18532;SDS011;9396;51.510;11.934;2023-08-01T05:39:05;3.23;;;1.00;;
18532;SDS011;9396;51.510;11.934;2023-08-01T05:41:32;1.90;;;1.20;;
18532;SDS011;9396;51.510;11.934;2023-08-01T05:43:58;2.13;;;1.10;;
18532;SDS011;9396;51.510;11.934;2023-08-01T05:46:25;3.17;;;1.00;;
18532;SDS011;9396;51.510;11.934;2023-08-01T05:48:52;9.27;;;1.63;;
18532;SDS011;9396;51.510;11.934;2023-08-01T05:51:19;20.97;;;3.10;;
18532;SDS011;9396;51.510;11.934;2023-08-01T05:53:45;5.00;;;1.17;;
18532;SDS011;9396;51.510;11.934;2023-08-01T05:56:13;6.30;;;1.43;;
18532;SDS011;9396;51.510;11.934;2023-08-01T05:58:40;2.13;;;1.00;;
18532;SDS011;9396;51.510;11.934;2023-08-01T06:01:07;2.30;;;1.17;;
18532;SDS011;9396;51.510;11.934;2023-08-01T06:03:34;2.47;;;1.00;;
18532;SDS011;9396;51.510;11.934;2023-08-01T06:06:00;1.20;;;0.90;;
18532;SDS011;9396;51.510;11.934;2023-08-01T06:08:27;2.13;;;1.10;;
18532;SDS011;9396;51.510;11.934;2023-08-01T06:10:54;3.03;;;1.10;;
18532;SDS011;9396;51.510;11.934;2023-08-01T06:13:22;1.30;;;0.90;;
18532;SDS011;9396;51.510;11.934;2023-08-01T06:15:49;2.50;;;1.10;;
18532;SDS011;9396;51.510;11.934;2023-08-01T06:18:15;2.07;;;0.80;;
18532;SDS011;9396;51.510;11.934;2023-08-01T06:20:42;2.53;;;0.80;;
18532;SDS011;9396;51.510;11.934;2023-08-01T06:23:09;2.17;;;0.70;;
18532;SDS011;9396;51.510;11.934;2023-08-01T06:25:35;2.10;;;0.70;;
18532;SDS011;9396;51.510;11.934;2023-08-01T06:28:02;2.53;;;0.87;;
18532;SDS011;9396;51.510;11.934;2023-08-01T06:30:30;0.70;;;0.70;;
18532;SDS011;9396;51.510;11.934;2023-08-01T06:32:57;2.30;;;0.90;;
18532;SDS011;9396;51.510;11.934;2023-08-01T06:35:24;1.10;;;0.80;;
18532;SDS011;9396;51.510;11.934;2023-08-01T06:37:50;2.47;;;0.60;;
18532;SDS011;9396;51.510;11.934;2023-08-01T06:40:17;2.03;;;0.60;;
18532;SDS011;9396;51.510;11.934;2023-08-01T06:42:44;1.23;;;0.83;;
18532;SDS011;9396;51.510;11.934;2023-08-01T06:45:11;3.00;;;0.70;;
18532;SDS011;9396;51.510;11.934;2023-08-01T06:47:39;1.70;;;0.87;;
18532;SDS011;9396;51.510;11.934;2023-08-01T06:50:05;1.90;;;0.70;;
18532;SDS011;9396;51.510;11.934;2023-08-01T06:52:32;2.63;;;0.80;;
18532;SDS011;9396;51.510;11.934;2023-08-01T06:54:59;1.23;;;0.77;;
18532;SDS011;9396;51.510;11.934;2023-08-01T06:57:26;3.00;;;0.73;;
18532;SDS011;9396;51.510;11.934;2023-08-01T06:59:53;2.03;;;0.73;;
18532;SDS011;9396;51.510;11.934;2023-08-01T07:02:20;1.03;;;0.60;;
18532;SDS011;9396;51.510;11.934;2023-08-01T07:04:48;0.97;;;0.60;;
18532;SDS011;9396;51.510;11.934;2023-08-01T07:07:15;1.03;;;0.50;;
18532;SDS011;9396;51.510;11.934;2023-08-01T07:09:42;2.50;;;1.13;;
18532;SDS011;9396;51.510;11.934;2023-08-01T07:12:09;2.37;;;0.60;;
18532;SDS011;9396;51.510;11.934;2023-08-01T07:14:35;2.40;;;0.77;;
18532;SDS011;9396;51.510;11.934;2023-08-01T07:17:02;3.10;;;0.87;;
18532;SDS011;9396;51.510;11.934;2023-08-01T07:19:29;1.47;;;0.50;;
18532;SDS011;9396;51.510;11.934;2023-08-01T07:21:57;1.03;;;0.70;;
18532;SDS011;9396;51.510;11.934;2023-08-01T07:24:23;2.73;;;0.80;;
18532;SDS011;9396;51.510;11.934;2023-08-01T07:26:50;2.57;;;0.70;;
18532;SDS011;9396;51.510;11.934;2023-08-01T07:29:17;1.37;;;0.60;;
18532;SDS011;9396;51.510;11.934;2023-08-01T07:31:43;4.27;;;0.90;;
18532;SDS011;9396;51.510;11.934;2023-08-01T07:34:11;1.00;;;0.70;;
18532;SDS011;9396;51.510;11.934;2023-08-01T07:36:37;2.07;;;0.67;;
18532;SDS011;9396;51.510;11.934;2023-08-01T07:39:05;1.30;;;0.60;;
18532;SDS011;9396;51.510;11.934;2023-08-01T07:41:32;2.00;;;0.73;;
18532;SDS011;9396;51.510;11.934;2023-08-01T07:44:00;1.90;;;0.70;;
18532;SDS011;9396;51.510;11.934;2023-08-01T07:46:27;1.73;;;1.00;;
18532;SDS011;9396;51.510;11.934;2023-08-01T07:48:54;1.63;;;0.80;;
18532;SDS011;9396;51.510;11.934;2023-08-01T07:51:20;1.53;;;0.70;;
18532;SDS011;9396;51.510;11.934;2023-08-01T07:53:47;3.40;;;0.63;;
18532;SDS011;9396;51.510;11.934;2023-08-01T07:56:15;2.13;;;0.60;;
18532;SDS011;9396;51.510;11.934;2023-08-01T07:58:42;2.57;;;0.60;;
18532;SDS011;9396;51.510;11.934;2023-08-01T08:01:08;1.90;;;0.53;;
18532;SDS011;9396;51.510;11.934;2023-08-01T08:03:35;1.83;;;0.53;;
18532;SDS011;9396;51.510;11.934;2023-08-01T08:06:02;1.17;;;0.70;;
18532;SDS011;9396;51.510;11.934;2023-08-01T08:08:29;5.07;;;0.63;;
18532;SDS011;9396;51.510;11.934;2023-08-01T08:10:58;2.23;;;0.63;;
18532;SDS011;9396;51.510;11.934;2023-08-01T08:13:27;0.97;;;0.60;;
18532;SDS011;9396;51.510;11.934;2023-08-01T08:15:54;0.70;;;0.50;;
18532;SDS011;9396;51.510;11.934;2023-08-01T08:18:21;1.00;;;0.50;;
18532;SDS011;9396;51.510;11.934;2023-08-01T08:20:48;1.37;;;0.50;;
18532;SDS011;9396;51.510;11.934;2023-08-01T08:23:15;0.87;;;0.40;;
18532;SDS011;9396;51.510;11.934;2023-08-01T08:25:42;0.70;;;0.40;;
18532;SDS011;9396;51.510;11.934;2023-08-01T08:28:09;0.53;;;0.30;;
18532;SDS011;9396;51.510;11.934;2023-08-01T08:30:39;4.80;;;0.87;;
18532;SDS011;9396;51.510;11.934;2023-08-01T08:33:05;1.30;;;0.50;;
18532;SDS011;9396;51.510;11.934;2023-08-01T08:35:32;0.53;;;0.53;;
18532;SDS011;9396;51.510;11.934;2023-08-01T08:38:01;1.90;;;0.60;;
18532;SDS011;9396;51.510;11.934;2023-08-01T08:40:29;0.30;;;0.23;;
18532;SDS011;9396;51.510;11.934;2023-08-01T08:42:56;3.63;;;0.80;;
18532;SDS011;9396;51.510;11.934;2023-08-01T08:45:27;0.97;;;0.60;;
18532;SDS011;9396;51.510;11.934;2023-08-01T08:48:01;0.73;;;0.50;;
18532;SDS011;9396;51.510;11.934;2023-08-01T08:50:29;0.70;;;0.40;;
18532;SDS011;9396;51.510;11.934;2023-08-01T08:52:57;0.70;;;0.40;;
18532;SDS011;9396;51.510;11.934;2023-08-01T08:55:24;0.77;;;0.47;;
18532;SDS011;9396;51.510;11.934;2023-08-01T08:57:52;1.43;;;0.60;;
18532;SDS011;9396;51.510;11.934;2023-08-01T09:00:19;1.03;;;0.53;;
18532;SDS011;9396;51.510;11.934;2023-08-01T09:02:47;0.53;;;0.40;;
18532;SDS011;9396;51.510;11.934;2023-08-01T09:05:15;1.10;;;0.50;;
18532;SDS011;9396;51.510;11.934;2023-08-01T09:07:42;2.17;;;0.50;;
18532;SDS011;9396;51.510;11.934;2023-08-01T09:10:13;0.50;;;0.40;;
18532;SDS011;9396;51.510;11.934;2023-08-01T09:12:39;0.80;;;0.40;;
18532;SDS011;9396;51.510;11.934;2023-08-01T09:15:06;0.40;;;0.40;;
18532;SDS011;9396;51.510;11.934;2023-08-01T09:17:36;0.47;;;0.30;;
18532;SDS011;9396;51.510;11.934;2023-08-01T09:20:15;1.07;;;0.47;;
18532;SDS011;9396;51.510;11.934;2023-08-01T09:22:42;1.63;;;0.47;;
18532;SDS011;9396;51.510;11.934;2023-08-01T09:25:10;1.73;;;0.50;;
18532;SDS011;9396;51.510;11.934;2023-08-01T09:27:37;1.63;;;0.80;;
18532;SDS011;9396;51.510;11.934;2023-08-01T09:30:07;0.93;;;0.43;;
18532;SDS011;9396;51.510;11.934;2023-08-01T09:32:36;3.37;;;0.40;;
18532;SDS011;9396;51.510;11.934;2023-08-01T09:35:03;0.83;;;0.50;;
18532;SDS011;9396;51.510;11.934;2023-08-01T09:37:39;0.40;;;0.30;;
18532;SDS011;9396;51.510;11.934;2023-08-01T09:40:07;0.80;;;0.47;;
18532;SDS011;9396;51.510;11.934;2023-08-01T09:42:37;1.30;;;0.43;;
18532;SDS011;9396;51.510;11.934;2023-08-01T09:45:06;3.33;;;0.57;;
18532;SDS011;9396;51.510;11.934;2023-08-01T09:47:38;0.70;;;0.40;;
18532;SDS011;9396;51.510;11.934;2023-08-01T09:50:05;0.87;;;0.43;;
18532;SDS011;9396;51.510;11.934;2023-08-01T09:52:32;3.30;;;0.60;;
18532;SDS011;9396;51.510;11.934;2023-08-01T09:55:00;0.67;;;0.63;;
18532;SDS011;9396;51.510;11.934;2023-08-01T09:57:28;0.87;;;0.60;;
18532;SDS011;9396;51.510;11.934;2023-08-01T09:59:56;1.20;;;0.57;;
18532;SDS011;9396;51.510;11.934;2023-08-01T10:02:24;1.83;;;0.90;;
18532;SDS011;9396;51.510;11.934;2023-08-01T10:04:56;0.93;;;0.70;;
18532;SDS011;9396;51.510;11.934;2023-08-01T10:07:25;1.43;;;0.87;;
18532;SDS011;9396;51.510;11.934;2023-08-01T10:09:57;0.80;;;0.70;;
18532;SDS011;9396;51.510;11.934;2023-08-01T10:12:26;2.23;;;1.00;;
18532;SDS011;9396;51.510;11.934;2023-08-01T10:14:53;2.50;;;0.90;;
18532;SDS011;9396;51.510;11.934;2023-08-01T10:17:21;1.90;;;0.90;;
18532;SDS011;9396;51.510;11.934;2023-08-01T10:19:48;1.83;;;0.90;;
18532;SDS011;9396;51.510;11.934;2023-08-01T10:22:16;1.10;;;1.00;;
18532;SDS011;9396;51.510;11.934;2023-08-01T10:24:44;2.20;;;1.10;;
18532;SDS011;9396;51.510;11.934;2023-08-01T10:27:13;1.77;;;0.80;;
18532;SDS011;9396;51.510;11.934;2023-08-01T10:29:42;2.43;;;0.90;;
18532;SDS011;9396;51.510;11.934;2023-08-01T10:32:09;2.00;;;1.10;;
18532;SDS011;9396;51.510;11.934;2023-08-01T10:34:37;2.67;;;0.90;;
18532;SDS011;9396;51.510;11.934;2023-08-01T10:37:04;1.07;;;0.90;;
18532;SDS011;9396;51.510;11.934;2023-08-01T10:39:30;1.50;;;1.13;;
18532;SDS011;9396;51.510;11.934;2023-08-01T10:41:58;1.73;;;0.90;;
18532;SDS011;9396;51.510;11.934;2023-08-01T10:44:25;2.43;;;0.90;;
18532;SDS011;9396;51.510;11.934;2023-08-01T10:46:54;1.03;;;0.93;;
18532;SDS011;9396;51.510;11.934;2023-08-01T10:49:33;0.87;;;0.73;;
18532;SDS011;9396;51.510;11.934;2023-08-01T10:52:01;1.63;;;0.80;;
18532;SDS011;9396;51.510;11.934;2023-08-01T10:54:28;1.57;;;1.20;;
18532;SDS011;9396;51.510;11.934;2023-08-01T10:56:55;1.00;;;0.90;;
18532;SDS011;9396;51.510;11.934;2023-08-01T10:59:24;1.30;;;1.00;;
18532;SDS011;9396;51.510;11.934;2023-08-01T11:01:52;2.77;;;1.00;;
18532;SDS011;9396;51.510;11.934;2023-08-01T11:04:24;0.90;;;0.90;;
18532;SDS011;9396;51.510;11.934;2023-08-01T11:06:54;3.20;;;1.10;;
18532;SDS011;9396;51.510;11.934;2023-08-01T11:09:22;2.20;;;1.40;;
18532;SDS011;9396;51.510;11.934;2023-08-01T11:11:50;1.10;;;0.90;;
18532;SDS011;9396;51.510;11.934;2023-08-01T11:14:19;1.97;;;1.20;;
18532;SDS011;9396;51.510;11.934;2023-08-01T11:16:47;1.67;;;0.80;;
18532;SDS011;9396;51.510;11.934;2023-08-01T11:19:19;3.30;;;1.53;;
18532;SDS011;9396;51.510;11.934;2023-08-01T11:21:47;2.40;;;1.50;;
18532;SDS011;9396;51.510;11.934;2023-08-01T11:24:14;1.40;;;1.10;;
18532;SDS011;9396;51.510;11.934;2023-08-01T11:26:41;1.30;;;1.10;;
18532;SDS011;9396;51.510;11.934;2023-08-01T11:29:09;3.93;;;1.17;;
18532;SDS011;9396;51.510;11.934;2023-08-01T11:31:36;2.27;;;1.40;;
18532;SDS011;9396;51.510;11.934;2023-08-01T11:34:02;2.70;;;1.50;;
18532;SDS011;9396;51.510;11.934;2023-08-01T11:36:31;6.43;;;1.70;;
18532;SDS011;9396;51.510;11.934;2023-08-01T11:38:59;3.20;;;1.40;;
18532;SDS011;9396;51.510;11.934;2023-08-01T11:41:26;1.60;;;1.23;;
18532;SDS011;9396;51.510;11.934;2023-08-01T11:43:53;3.07;;;1.63;;
18532;SDS011;9396;51.510;11.934;2023-08-01T11:46:21;2.33;;;1.40;;
18532;SDS011;9396;51.510;11.934;2023-08-01T11:48:48;4.03;;;1.97;;
18532;SDS011;9396;51.510;11.934;2023-08-01T11:51:15;4.03;;;1.77;;
18532;SDS011;9396;51.510;11.934;2023-08-01T11:53:44;3.80;;;2.03;;
18532;SDS011;9396;51.510;11.934;2023-08-01T11:56:19;3.13;;;1.37;;
18532;SDS011;9396;51.510;11.934;2023-08-01T11:58:47;3.13;;;1.60;;
18532;SDS011;9396;51.510;11.934;2023-08-01T12:01:14;2.00;;;1.30;;
18532;SDS011;9396;51.510;11.934;2023-08-01T12:03:44;4.93;;;1.43;;
18532;SDS011;9396;51.510;11.934;2023-08-01T12:06:12;4.40;;;1.40;;
18532;SDS011;9396;51.510;11.934;2023-08-01T12:08:40;3.30;;;1.60;;
18532;SDS011;9396;51.510;11.934;2023-08-01T12:11:18;3.13;;;1.63;;
18532;SDS011;9396;51.510;11.934;2023-08-01T12:13:46;2.40;;;1.50;;
18532;SDS011;9396;51.510;11.934;2023-08-01T12:16:12;2.37;;;1.40;;
18532;SDS011;9396;51.510;11.934;2023-08-01T12:18:45;3.10;;;1.73;;
18532;SDS011;9396;51.510;11.934;2023-08-01T12:21:12;2.83;;;1.50;;
18532;SDS011;9396;51.510;11.934;2023-08-01T12:23:39;3.80;;;1.90;;
18532;SDS011;9396;51.510;11.934;2023-08-01T12:26:06;2.63;;;1.90;;
18532;SDS011;9396;51.510;11.934;2023-08-01T12:28:34;2.80;;;2.17;;
18532;SDS011;9396;51.510;11.934;2023-08-01T12:31:01;2.87;;;1.87;;
18532;SDS011;9396;51.510;11.934;2023-08-01T12:33:28;3.17;;;2.30;;
18532;SDS011;9396;51.510;11.934;2023-08-01T12:35:55;6.93;;;2.00;;
18532;SDS011;9396;51.510;11.934;2023-08-01T12:38:22;8.93;;;2.30;;
18532;SDS011;9396;51.510;11.934;2023-08-01T12:40:48;3.50;;;1.77;;
18532;SDS011;9396;51.510;11.934;2023-08-01T12:43:15;3.40;;;2.13;;
18532;SDS011;9396;51.510;11.934;2023-08-01T12:45:44;3.87;;;2.73;;
18532;SDS011;9396;51.510;11.934;2023-08-01T12:48:12;5.73;;;2.50;;
18532;SDS011;9396;51.510;11.934;2023-08-01T12:50:42;4.17;;;2.03;;
18532;SDS011;9396;51.510;11.934;2023-08-01T12:53:10;5.27;;;2.27;;
18532;SDS011;9396;51.510;11.934;2023-08-01T12:55:37;5.40;;;2.67;;
18532;SDS011;9396;51.510;11.934;2023-08-01T12:58:03;4.73;;;2.47;;
18532;SDS011;9396;51.510;11.934;2023-08-01T13:00:30;4.17;;;1.97;;
18532;SDS011;9396;51.510;11.934;2023-08-01T13:02:58;3.17;;;2.00;;
18532;SDS011;9396;51.510;11.934;2023-08-01T13:05:25;3.50;;;2.60;;
18532;SDS011;9396;51.510;11.934;2023-08-01T13:07:52;3.23;;;2.73;;
18532;SDS011;9396;51.510;11.934;2023-08-01T13:10:19;3.20;;;2.60;;
18532;SDS011;9396;51.510;11.934;2023-08-01T13:12:46;3.57;;;2.63;;
18532;SDS011;9396;51.510;11.934;2023-08-01T13:15:12;4.30;;;2.70;;
18532;SDS011;9396;51.510;11.934;2023-08-01T13:17:39;2.97;;;2.63;;
18532;SDS011;9396;51.510;11.934;2023-08-01T13:20:08;4.47;;;2.20;;
18532;SDS011;9396;51.510;11.934;2023-08-01T13:22:35;3.50;;;2.43;;
18532;SDS011;9396;51.510;11.934;2023-08-01T13:25:02;5.47;;;2.43;;
18532;SDS011;9396;51.510;11.934;2023-08-01T13:27:29;4.20;;;3.00;;
18532;SDS011;9396;51.510;11.934;2023-08-01T13:29:56;8.07;;;3.63;;
18532;SDS011;9396;51.510;11.934;2023-08-01T13:32:23;8.67;;;3.70;;
18532;SDS011;9396;51.510;11.934;2023-08-01T13:34:49;4.47;;;3.30;;
18532;SDS011;9396;51.510;11.934;2023-08-01T13:37:18;6.87;;;2.97;;
18532;SDS011;9396;51.510;11.934;2023-08-01T13:39:44;6.30;;;3.47;;
18532;SDS011;9396;51.510;11.934;2023-08-01T13:42:11;5.77;;;3.30;;
18532;SDS011;9396;51.510;11.934;2023-08-01T13:44:40;3.80;;;3.13;;
18532;SDS011;9396;51.510;11.934;2023-08-01T13:47:07;5.67;;;2.60;;
18532;SDS011;9396;51.510;11.934;2023-08-01T13:49:34;3.93;;;2.83;;
18532;SDS011;9396;51.510;11.934;2023-08-01T13:52:00;5.93;;;3.80;;
18532;SDS011;9396;51.510;11.934;2023-08-01T13:54:29;4.13;;;3.40;;
18532;SDS011;9396;51.510;11.934;2023-08-01T13:56:56;6.20;;;3.20;;
18532;SDS011;9396;51.510;11.934;2023-08-01T13:59:23;6.43;;;3.50;;
18532;SDS011;9396;51.510;11.934;2023-08-01T14:01:50;5.43;;;3.40;;
18532;SDS011;9396;51.510;11.934;2023-08-01T14:04:17;8.10;;;3.03;;
18532;SDS011;9396;51.510;11.934;2023-08-01T14:06:44;4.67;;;3.30;;
18532;SDS011;9396;51.510;11.934;2023-08-01T14:09:10;4.37;;;3.13;;
18532;SDS011;9396;51.510;11.934;2023-08-01T14:11:39;6.30;;;3.67;;
18532;SDS011;9396;51.510;11.934;2023-08-01T14:14:06;3.53;;;2.80;;
18532;SDS011;9396;51.510;11.934;2023-08-01T14:16:32;5.73;;;3.13;;
18532;SDS011;9396;51.510;11.934;2023-08-01T14:18:59;4.20;;;3.03;;
18532;SDS011;9396;51.510;11.934;2023-08-01T14:21:26;3.73;;;2.60;;
18532;SDS011;9396;51.510;11.934;2023-08-01T14:23:52;5.40;;;3.17;;
18532;SDS011;9396;51.510;11.934;2023-08-01T14:26:19;3.03;;;2.73;;
18532;SDS011;9396;51.510;11.934;2023-08-01T14:28:47;4.93;;;2.73;;
18532;SDS011;9396;51.510;11.934;2023-08-01T14:31:15;4.27;;;3.00;;
18532;SDS011;9396;51.510;11.934;2023-08-01T14:33:41;5.73;;;3.40;;
18532;SDS011;9396;51.510;11.934;2023-08-01T14:36:08;6.10;;;2.93;;
18532;SDS011;9396;51.510;11.934;2023-08-01T14:38:37;4.03;;;3.30;;
18532;SDS011;9396;51.510;11.934;2023-08-01T14:41:04;4.17;;;2.77;;
18532;SDS011;9396;51.510;11.934;2023-08-01T14:43:31;4.37;;;2.93;;
18532;SDS011;9396;51.510;11.934;2023-08-01T14:45:59;7.23;;;3.17;;
18532;SDS011;9396;51.510;11.934;2023-08-01T14:48:26;4.00;;;2.57;;